Terminal Aerodrome Forecast
Issued by NWS Boston, MA

Home | Current Version | Previous Version | Text Only | Print | Product List | Glossary On
Versions: 1 2 3 4 5 6 7 8 9 10 11 12 13 14 15 16 17 18 19 20 21 22 23 24 25 26 27 28 29 30 31 32 33
000
FTUS41 KBOX 041720
TAFORH
TAF
KORH 041720Z 0418/0518 27014G22KT P6SM SCT035 OVC100
     FM042200 27007KT P6SM BKN080
     FM050500 28006KT 3SM -SN OVC050
     FM050800 28006KT P6SM OVC050
     FM051700 32006KT P6SM OVC250=

USA.gov is the U.S. government's official web portal to all federal, state and local government web resources and services.